sensor_id;sensor_type;location;lat;lon;timestamp;pressure;altitude;pressure_sealevel;temperature;humidity
28626;BME280;18905;42.668;23.364;2024-01-07T00:02:12;93656.06;;;6.35;76.54
28626;BME280;18905;42.668;23.364;2024-01-07T00:04:40;93654.53;;;6.34;76.61
28626;BME280;18905;42.668;23.364;2024-01-07T00:07:05;93650.63;;;6.36;76.48
28626;BME280;18905;42.668;23.364;2024-01-07T00:09:30;93644.94;;;6.48;76.74
28626;BME280;18905;42.668;23.364;2024-01-07T00:11:56;93632.59;;;6.67;76.90
28626;BME280;18905;42.668;23.364;2024-01-07T00:14:21;93631.09;;;6.83;76.69
28626;BME280;18905;42.668;23.364;2024-01-07T00:16:47;93632.78;;;6.96;76.54
28626;BME280;18905;42.668;23.364;2024-01-07T00:19:12;93618.44;;;7.04;76.03
28626;BME280;18905;42.668;23.364;2024-01-07T00:21:38;93616.31;;;7.23;75.86
28626;BME280;18905;42.668;23.364;2024-01-07T00:24:03;93605.28;;;7.31;74.93
28626;BME280;18905;42.668;23.364;2024-01-07T00:26:28;93615.81;;;7.47;74.74
28626;BME280;18905;42.668;23.364;2024-01-07T00:28:54;93617.53;;;7.00;72.33
28626;BME280;18905;42.668;23.364;2024-01-07T00:31:19;93608.19;;;7.04;72.68
28626;BME280;18905;42.668;23.364;2024-01-07T00:33:45;93602.91;;;7.17;73.08
28626;BME280;18905;42.668;23.364;2024-01-07T00:36:10;93592.53;;;7.14;73.32
28626;BME280;18905;42.668;23.364;2024-01-07T00:38:35;93581.09;;;7.03;73.60
28626;BME280;18905;42.668;23.364;2024-01-07T00:41:01;93586.03;;;7.08;73.11
28626;BME280;18905;42.668;23.364;2024-01-07T00:43:26;93596.19;;;6.87;73.26
28626;BME280;18905;42.668;23.364;2024-01-07T00:45:51;93573.91;;;6.71;72.95
28626;BME280;18905;42.668;23.364;2024-01-07T00:48:17;93584.44;;;6.26;73.47
28626;BME280;18905;42.668;23.364;2024-01-07T00:50:42;93563.06;;;6.39;74.00
28626;BME280;18905;42.668;23.364;2024-01-07T00:53:08;93560.50;;;6.31;73.44
28626;BME280;18905;42.668;23.364;2024-01-07T00:55:33;93548.91;;;6.33;73.54
28626;BME280;18905;42.668;23.364;2024-01-07T00:58:01;93555.22;;;6.10;74.52
28626;BME280;18905;42.668;23.364;2024-01-07T01:00:26;93554.16;;;6.11;74.30
28626;BME280;18905;42.668;23.364;2024-01-07T01:02:52;93554.41;;;5.93;75.07
28626;BME280;18905;42.668;23.364;2024-01-07T01:05:18;93559.81;;;5.52;76.17
28626;BME280;18905;42.668;23.364;2024-01-07T01:07:43;93554.59;;;5.57;77.20
28626;BME280;18905;42.668;23.364;2024-01-07T01:10:09;93556.22;;;5.53;77.67
28626;BME280;18905;42.668;23.364;2024-01-07T01:12:34;93543.38;;;5.75;76.63
28626;BME280;18905;42.668;23.364;2024-01-07T01:15:00;93536.69;;;5.96;74.81
28626;BME280;18905;42.668;23.364;2024-01-07T01:17:25;93524.06;;;6.00;74.67
28626;BME280;18905;42.668;23.364;2024-01-07T01:19:50;93520.47;;;6.09;74.53
28626;BME280;18905;42.668;23.364;2024-01-07T01:22:16;93522.41;;;6.04;74.44
28626;BME280;18905;42.668;23.364;2024-01-07T01:24:41;93512.66;;;6.14;74.15
28626;BME280;18905;42.668;23.364;2024-01-07T01:27:09;93502.88;;;6.25;74.06
28626;BME280;18905;42.668;23.364;2024-01-07T01:29:36;93493.53;;;6.29;74.03
28626;BME280;18905;42.668;23.364;2024-01-07T01:32:01;93489.78;;;6.26;73.78
28626;BME280;18905;42.668;23.364;2024-01-07T01:34:27;93472.31;;;6.37;73.25
28626;BME280;18905;42.668;23.364;2024-01-07T01:36:52;93470.97;;;6.39;72.69
28626;BME280;18905;42.668;23.364;2024-01-07T01:39:17;93470.97;;;6.39;73.82
28626;BME280;18905;42.668;23.364;2024-01-07T01:41:43;93464.63;;;6.54;73.34
28626;BME280;18905;42.668;23.364;2024-01-07T01:44:09;93457.69;;;6.55;72.84
28626;BME280;18905;42.668;23.364;2024-01-07T01:46:34;93460.56;;;6.62;72.90
28626;BME280;18905;42.668;23.364;2024-01-07T01:49:00;93450.00;;;6.63;72.23
28626;BME280;18905;42.668;23.364;2024-01-07T01:51:26;93436.94;;;6.65;71.87
28626;BME280;18905;42.668;23.364;2024-01-07T01:53:52;93420.38;;;6.53;72.32
28626;BME280;18905;42.668;23.364;2024-01-07T01:56:20;93419.63;;;6.62;72.92
28626;BME280;18905;42.668;23.364;2024-01-07T01:58:46;93415.53;;;6.69;72.14
28626;BME280;18905;42.668;23.364;2024-01-07T02:01:12;93419.16;;;6.60;72.71
28626;BME280;18905;42.668;23.364;2024-01-07T02:03:38;93419.16;;;6.60;72.28
28626;BME280;18905;42.668;23.364;2024-01-07T02:06:03;93421.84;;;6.63;72.66
28626;BME280;18905;42.668;23.364;2024-01-07T02:08:29;93425.63;;;6.66;72.14
28626;BME280;18905;42.668;23.364;2024-01-07T02:10:55;93429.59;;;6.46;74.57
28626;BME280;18905;42.668;23.364;2024-01-07T02:13:20;93427.50;;;6.39;73.72
28626;BME280;18905;42.668;23.364;2024-01-07T02:15:46;93422.84;;;6.07;75.44
28626;BME280;18905;42.668;23.364;2024-01-07T02:18:11;93395.03;;;6.14;76.62
28626;BME280;18905;42.668;23.364;2024-01-07T02:20:37;93384.66;;;6.19;75.42
28626;BME280;18905;42.668;23.364;2024-01-07T02:23:03;93397.44;;;6.02;77.55
28626;BME280;18905;42.668;23.364;2024-01-07T02:25:29;93371.75;;;5.99;77.12
28626;BME280;18905;42.668;23.364;2024-01-07T02:27:54;93351.44;;;5.94;78.15
28626;BME280;18905;42.668;23.364;2024-01-07T02:30:19;93340.47;;;5.76;80.60
28626;BME280;18905;42.668;23.364;2024-01-07T02:32:45;93332.50;;;5.86;79.55
28626;BME280;18905;42.668;23.364;2024-01-07T02:35:11;93320.78;;;5.85;78.75
28626;BME280;18905;42.668;23.364;2024-01-07T02:37:36;93335.34;;;5.93;79.10
28626;BME280;18905;42.668;23.364;2024-01-07T02:40:02;93335.34;;;5.93;78.61
28626;BME280;18905;42.668;23.364;2024-01-07T02:42:27;93335.03;;;6.03;77.97
28626;BME280;18905;42.668;23.364;2024-01-07T02:44:53;93329.47;;;5.93;78.84
28626;BME280;18905;42.668;23.364;2024-01-07T02:47:18;93335.66;;;5.92;78.89
28626;BME280;18905;42.668;23.364;2024-01-07T02:49:43;93334.13;;;5.91;80.47
28626;BME280;18905;42.668;23.364;2024-01-07T02:52:09;93344.53;;;5.94;80.55
28626;BME280;18905;42.668;23.364;2024-01-07T02:54:34;93345.53;;;6.02;80.23
28626;BME280;18905;42.668;23.364;2024-01-07T02:56:59;93338.47;;;6.16;79.41
28626;BME280;18905;42.668;23.364;2024-01-07T02:59:25;93330.31;;;6.22;80.67
28626;BME280;18905;42.668;23.364;2024-01-07T03:01:50;93351.22;;;6.33;80.21
28626;BME280;18905;42.668;23.364;2024-01-07T03:04:16;93359.44;;;6.56;79.87
28626;BME280;18905;42.668;23.364;2024-01-07T03:06:42;93359.66;;;6.71;79.25
28626;BME280;18905;42.668;23.364;2024-01-07T03:09:08;93339.88;;;6.89;79.65
28626;BME280;18905;42.668;23.364;2024-01-07T03:11:39;93341.88;;;7.04;79.34
28626;BME280;18905;42.668;23.364;2024-01-07T03:14:04;93344.16;;;7.26;79.68
28626;BME280;18905;42.668;23.364;2024-01-07T03:16:29;93331.81;;;7.49;78.99
28626;BME280;18905;42.668;23.364;2024-01-07T03:18:55;93353.75;;;7.79;78.17
28626;BME280;18905;42.668;23.364;2024-01-07T03:21:22;93359.91;;;7.98;77.79
28626;BME280;18905;42.668;23.364;2024-01-07T03:23:48;93367.47;;;8.16;76.87
28626;BME280;18905;42.668;23.364;2024-01-07T03:26:16;93367.69;;;8.23;76.97
28626;BME280;18905;42.668;23.364;2024-01-07T03:28:41;93365.19;;;8.35;76.53
28626;BME280;18905;42.668;23.364;2024-01-07T03:31:10;93361.59;;;8.48;76.78
28626;BME280;18905;42.668;23.364;2024-01-07T03:33:40;93354.66;;;8.60;76.55
28626;BME280;18905;42.668;23.364;2024-01-07T03:36:10;93350.81;;;8.54;76.15
28626;BME280;18905;42.668;23.364;2024-01-07T03:38:36;93348.19;;;8.42;74.85
28626;BME280;18905;42.668;23.364;2024-01-07T03:41:02;93351.81;;;8.09;75.75
28626;BME280;18905;42.668;23.364;2024-01-07T03:43:27;93356.91;;;7.96;75.32
28626;BME280;18905;42.668;23.364;2024-01-07T03:45:52;93351.06;;;7.75;75.69
28626;BME280;18905;42.668;23.364;2024-01-07T03:48:18;93331.38;;;7.67;76.18
28626;BME280;18905;42.668;23.364;2024-01-07T03:50:43;93349.50;;;7.42;77.17
28626;BME280;18905;42.668;23.364;2024-01-07T03:53:09;93342.50;;;7.30;76.78
28626;BME280;18905;42.668;23.364;2024-01-07T03:55:34;93342.50;;;7.30;77.67
28626;BME280;18905;42.668;23.364;2024-01-07T03:57:59;93356.72;;;7.19;77.62
28626;BME280;18905;42.668;23.364;2024-01-07T04:00:25;93350.09;;;6.89;78.92
28626;BME280;18905;42.668;23.364;2024-01-07T04:02:50;93340.09;;;7.04;78.89
28626;BME280;18905;42.668;23.364;2024-01-07T04:05:15;93340.78;;;7.13;78.21
28626;BME280;18905;42.668;23.364;2024-01-07T04:07:41;93345.16;;;7.13;78.18
28626;BME280;18905;42.668;23.364;2024-01-07T04:10:06;93329.16;;;7.16;77.85
28626;BME280;18905;42.668;23.364;2024-01-07T04:12:32;93324.22;;;7.11;78.59
28626;BME280;18905;42.668;23.364;2024-01-07T04:14:57;93324.41;;;7.06;78.64
28626;BME280;18905;42.668;23.364;2024-01-07T04:17:23;93319.94;;;7.23;77.51
28626;BME280;18905;42.668;23.364;2024-01-07T04:19:49;93322.78;;;7.22;77.81
28626;BME280;18905;42.668;23.364;2024-01-07T04:22:14;93318.41;;;7.02;79.10
28626;BME280;18905;42.668;23.364;2024-01-07T04:24:43;93308.91;;;7.02;79.26
28626;BME280;18905;42.668;23.364;2024-01-07T04:27:08;93319.63;;;7.25;78.74
28626;BME280;18905;42.668;23.364;2024-01-07T04:29:34;93313.19;;;7.19;78.76
28626;BME280;18905;42.668;23.364;2024-01-07T04:31:59;93310.69;;;7.31;78.66
28626;BME280;18905;42.668;23.364;2024-01-07T04:34:24;93305.81;;;7.38;78.89
28626;BME280;18905;42.668;23.364;2024-01-07T04:36:50;93294.94;;;7.41;78.37
28626;BME280;18905;42.668;23.364;2024-01-07T04:39:16;93296.69;;;7.49;78.34
28626;BME280;18905;42.668;23.364;2024-01-07T04:41:41;93298.00;;;7.14;79.76
28626;BME280;18905;42.668;23.364;2024-01-07T04:44:06;93295.00;;;6.53;82.51
28626;BME280;18905;42.668;23.364;2024-01-07T04:46:38;93285.91;;;6.35;84.06
28626;BME280;18905;42.668;23.364;2024-01-07T04:49:03;93274.09;;;6.14;84.34
28626;BME280;18905;42.668;23.364;2024-01-07T04:51:31;93280.56;;;6.49;83.67
28626;BME280;18905;42.668;23.364;2024-01-07T04:53:56;93286.81;;;6.69;83.09
28626;BME280;18905;42.668;23.364;2024-01-07T04:56:21;93305.34;;;6.66;82.93
28626;BME280;18905;42.668;23.364;2024-01-07T04:58:47;93306.94;;;6.79;82.38
28626;BME280;18905;42.668;23.364;2024-01-07T05:01:12;93317.22;;;6.99;81.90
28626;BME280;18905;42.668;23.364;2024-01-07T05:03:37;93304.47;;;6.91;81.95
28626;BME280;18905;42.668;23.364;2024-01-07T05:06:03;93320.41;;;6.96;81.49
28626;BME280;18905;42.668;23.364;2024-01-07T05:08:29;93295.16;;;6.86;81.12
28626;BME280;18905;42.668;23.364;2024-01-07T05:10:55;93305.94;;;6.63;81.81
28626;BME280;18905;42.668;23.364;2024-01-07T05:13:20;93307.06;;;6.53;82.96
28626;BME280;18905;42.668;23.364;2024-01-07T05:15:45;93279.78;;;6.57;82.40
28626;BME280;18905;42.668;23.364;2024-01-07T05:18:12;93264.69;;;6.35;83.74
28626;BME280;18905;42.668;23.364;2024-01-07T05:20:37;93295.25;;;6.31;83.34
28626;BME280;18905;42.668;23.364;2024-01-07T05:23:03;93297.91;;;6.43;83.58
28626;BME280;18905;42.668;23.364;2024-01-07T05:25:29;93299.22;;;6.49;83.35
28626;BME280;18905;42.668;23.364;2024-01-07T05:27:54;93309.75;;;6.57;83.06
28626;BME280;18905;42.668;23.364;2024-01-07T05:30:20;93300.38;;;6.69;82.93
28626;BME280;18905;42.668;23.364;2024-01-07T05:32:45;93294.13;;;6.79;81.88
28626;BME280;18905;42.668;23.364;2024-01-07T05:35:10;93294.13;;;6.79;81.76
28626;BME280;18905;42.668;23.364;2024-01-07T05:37:36;93299.22;;;6.87;81.17
28626;BME280;18905;42.668;23.364;2024-01-07T05:40:01;93293.13;;;6.71;81.24
28626;BME280;18905;42.668;23.364;2024-01-07T05:42:27;93282.25;;;6.74;82.25
28626;BME280;18905;42.668;23.364;2024-01-07T05:44:53;93282.66;;;6.85;81.81
28626;BME280;18905;42.668;23.364;2024-01-07T05:47:18;93292.28;;;6.88;81.85
28626;BME280;18905;42.668;23.364;2024-01-07T05:49:44;93297.53;;;6.91;81.21
28626;BME280;18905;42.668;23.364;2024-01-07T05:52:09;93293.97;;;6.84;82.00
28626;BME280;18905;42.668;23.364;2024-01-07T05:54:34;93299.03;;;6.92;80.58
28626;BME280;18905;42.668;23.364;2024-01-07T05:57:00;93313.06;;;6.86;80.92
28626;BME280;18905;42.668;23.364;2024-01-07T05:59:25;93316.81;;;6.89;80.81
28626;BME280;18905;42.668;23.364;2024-01-07T06:01:51;93323.44;;;6.90;81.64
28626;BME280;18905;42.668;23.364;2024-01-07T06:04:16;93306.41;;;6.94;81.07
28626;BME280;18905;42.668;23.364;2024-01-07T06:06:41;93292.28;;;6.88;81.05
28626;BME280;18905;42.668;23.364;2024-01-07T06:09:07;93286.63;;;7.03;80.40
28626;BME280;18905;42.668;23.364;2024-01-07T06:11:33;93281.75;;;7.10;80.56
28626;BME280;18905;42.668;23.364;2024-01-07T06:13:58;93288.00;;;7.21;79.72
28626;BME280;18905;42.668;23.364;2024-01-07T06:16:23;93280.50;;;7.16;79.52
28626;BME280;18905;42.668;23.364;2024-01-07T06:18:49;93263.69;;;6.57;81.65
28626;BME280;18905;42.668;23.364;2024-01-07T06:21:14;93287.19;;;6.50;83.63
28626;BME280;18905;42.668;23.364;2024-01-07T06:23:39;93288.91;;;6.37;84.06
28626;BME280;18905;42.668;23.364;2024-01-07T06:26:05;93279.47;;;6.59;82.84
28626;BME280;18905;42.668;23.364;2024-01-07T06:28:32;93291.56;;;6.79;82.13
28626;BME280;18905;42.668;23.364;2024-01-07T06:30:58;93293.59;;;6.94;81.64
28626;BME280;18905;42.668;23.364;2024-01-07T06:33:23;93286.31;;;7.04;81.20
28626;BME280;18905;42.668;23.364;2024-01-07T06:35:48;93297.94;;;7.22;80.31
28626;BME280;18905;42.668;23.364;2024-01-07T06:38:14;93299.69;;;7.31;80.41
28626;BME280;18905;42.668;23.364;2024-01-07T06:40:40;93293.44;;;7.40;79.94
28626;BME280;18905;42.668;23.364;2024-01-07T06:43:05;93298.75;;;7.56;79.31
28626;BME280;18905;42.668;23.364;2024-01-07T06:45:31;93303.63;;;7.49;79.12
28626;BME280;18905;42.668;23.364;2024-01-07T06:47:57;93318.69;;;7.50;79.06
28626;BME280;18905;42.668;23.364;2024-01-07T06:50:23;93326.19;;;7.55;78.76
28626;BME280;18905;42.668;23.364;2024-01-07T06:52:48;93326.06;;;7.52;79.23
28626;BME280;18905;42.668;23.364;2024-01-07T06:55:14;93305.94;;;7.42;79.72
28626;BME280;18905;42.668;23.364;2024-01-07T06:57:40;93322.94;;;7.46;78.84
28626;BME280;18905;42.668;23.364;2024-01-07T07:00:05;93322.19;;;7.46;79.03
28626;BME280;18905;42.668;23.364;2024-01-07T07:02:31;93316.25;;;7.54;79.06
28626;BME280;18905;42.668;23.364;2024-01-07T07:04:56;93306.00;;;7.54;79.57
28626;BME280;18905;42.668;23.364;2024-01-07T07:07:22;93316.00;;;6.97;81.08
28626;BME280;18905;42.668;23.364;2024-01-07T07:09:47;93331.56;;;7.21;80.22
28626;BME280;18905;42.668;23.364;2024-01-07T07:12:12;93328.31;;;7.33;80.59
28626;BME280;18905;42.668;23.364;2024-01-07T07:14:38;93304.50;;;7.32;80.61
28626;BME280;18905;42.668;23.364;2024-01-07T07:17:03;93292.56;;;7.36;80.27
28626;BME280;18905;42.668;23.364;2024-01-07T07:19:29;93273.69;;;7.20;80.10
28626;BME280;18905;42.668;23.364;2024-01-07T07:21:54;93285.25;;;7.26;80.56
28626;BME280;18905;42.668;23.364;2024-01-07T07:24:20;93309.06;;;7.47;80.32
28626;BME280;18905;42.668;23.364;2024-01-07T07:26:45;93298.22;;;7.62;79.15
28626;BME280;18905;42.668;23.364;2024-01-07T07:29:10;93301.94;;;7.85;79.00
28626;BME280;18905;42.668;23.364;2024-01-07T07:31:36;93296.00;;;7.93;78.01
28626;BME280;18905;42.668;23.364;2024-01-07T07:34:05;93305.03;;;8.12;77.80
28626;BME280;18905;42.668;23.364;2024-01-07T07:36:30;93302.69;;;8.19;77.49
28626;BME280;18905;42.668;23.364;2024-01-07T07:38:56;93307.53;;;8.32;77.12
28626;BME280;18905;42.668;23.364;2024-01-07T07:41:21;93316.66;;;8.42;75.45
28626;BME280;18905;42.668;23.364;2024-01-07T07:43:47;93317.72;;;8.41;75.95
28626;BME280;18905;42.668;23.364;2024-01-07T07:46:12;93314.97;;;8.58;74.94
28626;BME280;18905;42.668;23.364;2024-01-07T07:48:41;93299.25;;;8.47;75.83
28626;BME280;18905;42.668;23.364;2024-01-07T07:51:07;93301.59;;;8.40;75.61
28626;BME280;18905;42.668;23.364;2024-01-07T07:53:32;93292.72;;;8.62;74.52
28626;BME280;18905;42.668;23.364;2024-01-07T07:55:58;93297.94;;;8.53;74.07
28626;BME280;18905;42.668;23.364;2024-01-07T07:58:24;93292.19;;;8.56;73.83
28626;BME280;18905;42.668;23.364;2024-01-07T08:00:49;93288.78;;;8.52;75.24
28626;BME280;18905;42.668;23.364;2024-01-07T08:03:15;93284.56;;;8.96;77.24
28626;BME280;18905;42.668;23.364;2024-01-07T08:05:41;93289.72;;;9.48;71.79
28626;BME280;18905;42.668;23.364;2024-01-07T08:08:07;93293.72;;;9.33;71.24
28626;BME280;18905;42.668;23.364;2024-01-07T08:10:35;93294.16;;;9.35;71.90
28626;BME280;18905;42.668;23.364;2024-01-07T08:13:01;93295.78;;;9.16;71.41
28626;BME280;18905;42.668;23.364;2024-01-07T08:15:26;93275.97;;;9.16;73.78
28626;BME280;18905;42.668;23.364;2024-01-07T08:17:52;93294.41;;;9.06;72.56
28626;BME280;18905;42.668;23.364;2024-01-07T08:20:17;93292.06;;;8.89;72.40
28626;BME280;18905;42.668;23.364;2024-01-07T08:22:42;93291.84;;;8.82;73.38
28626;BME280;18905;42.668;23.364;2024-01-07T08:25:08;93294.41;;;9.06;72.31
28626;BME280;18905;42.668;23.364;2024-01-07T08:27:34;93295.50;;;8.93;72.75
28626;BME280;18905;42.668;23.364;2024-01-07T08:30:00;93298.28;;;8.76;73.80
28626;BME280;18905;42.668;23.364;2024-01-07T08:32:26;93301.72;;;8.68;74.32
28626;BME280;18905;42.668;23.364;2024-01-07T08:34:52;93294.88;;;8.72;75.23
28626;BME280;18905;42.668;23.364;2024-01-07T08:37:17;93295.94;;;8.83;73.90
28626;BME280;18905;42.668;23.364;2024-01-07T08:39:42;93284.81;;;8.67;74.82
28626;BME280;18905;42.668;23.364;2024-01-07T08:42:08;93291.75;;;8.66;75.76
28626;BME280;18905;42.668;23.364;2024-01-07T08:44:34;93289.72;;;8.72;75.61
28626;BME280;18905;42.668;23.364;2024-01-07T08:46:59;93289.94;;;8.79;75.33
28626;BME280;18905;42.668;23.364;2024-01-07T08:49:27;93299.97;;;8.96;75.46
28626;BME280;18905;42.668;23.364;2024-01-07T08:51:53;93294.22;;;8.99;75.27
28626;BME280;18905;42.668;23.364;2024-01-07T08:54:18;93286.63;;;9.43;75.27
28626;BME280;18905;42.668;23.364;2024-01-07T08:56:43;93287.59;;;9.66;73.13
28626;BME280;18905;42.668;23.364;2024-01-07T08:59:10;93293.91;;;9.96;72.22
28626;BME280;18905;42.668;23.364;2024-01-07T09:01:35;93284.97;;;10.18;71.55
28626;BME280;18905;42.668;23.364;2024-01-07T09:04:01;93276.25;;;9.94;71.89
28626;BME280;18905;42.668;23.364;2024-01-07T09:06:26;93284.03;;;9.98;71.39
28626;BME280;18905;42.668;23.364;2024-01-07T09:08:52;93291.66;;;9.79;72.23
28626;BME280;18905;42.668;23.364;2024-01-07T09:11:20;93294.13;;;9.75;72.42
28626;BME280;18905;42.668;23.364;2024-01-07T09:13:45;93289.28;;;9.86;72.64
28626;BME280;18905;42.668;23.364;2024-01-07T09:16:13;93281.22;;;9.87;71.84
28626;BME280;18905;42.668;23.364;2024-01-07T09:18:39;93292.84;;;10.40;69.18
28626;BME280;18905;42.668;23.364;2024-01-07T09:21:04;93279.63;;;10.73;68.91
28626;BME280;18905;42.668;23.364;2024-01-07T09:23:31;93281.34;;;11.54;65.43
28626;BME280;18905;42.668;23.364;2024-01-07T09:25:58;93291.69;;;11.92;64.84
28626;BME280;18905;42.668;23.364;2024-01-07T09:28:24;93294.41;;;11.99;63.31
28626;BME280;18905;42.668;23.364;2024-01-07T09:30:49;93291.72;;;11.73;63.52
28626;BME280;18905;42.668;23.364;2024-01-07T09:33:14;93282.44;;;11.53;64.05
28626;BME280;18905;42.668;23.364;2024-01-07T09:35:40;93279.56;;;11.58;65.28
28626;BME280;18905;42.668;23.364;2024-01-07T09:38:06;93274.53;;;12.03;64.10
28626;BME280;18905;42.668;23.364;2024-01-07T09:40:31;93274.16;;;12.01;62.88
28626;BME280;18905;42.668;23.364;2024-01-07T09:42:56;93272.03;;;12.07;62.92
28626;BME280;18905;42.668;23.364;2024-01-07T09:45:24;93267.13;;;11.79;63.95
28626;BME280;18905;42.668;23.364;2024-01-07T09:47:50;93259.66;;;11.74;64.25
28626;BME280;18905;42.668;23.364;2024-01-07T09:50:16;93271.28;;;12.06;62.72
28626;BME280;18905;42.668;23.364;2024-01-07T09:52:45;93278.81;;;12.15;61.64
28626;BME280;18905;42.668;23.364;2024-01-07T09:55:40;93289.63;;;12.01;62.06
28626;BME280;18905;42.668;23.364;2024-01-07T09:58:10;93293.13;;;12.32;61.69
28626;BME280;18905;42.668;23.364;2024-01-07T10:00:36;93287.19;;;12.31;59.93
28626;BME280;18905;42.668;23.364;2024-01-07T10:03:02;93282.28;;;12.45;59.65
28626;BME280;18905;42.668;23.364;2024-01-07T10:05:28;93265.75;;;12.27;58.86
28626;BME280;18905;42.668;23.364;2024-01-07T10:07:53;93261.09;;;12.13;59.15
28626;BME280;18905;42.668;23.364;2024-01-07T10:10:20;93268.72;;;12.52;66.04
28626;BME280;18905;42.668;23.364;2024-01-07T10:12:46;93272.78;;;13.28;60.52
28626;BME280;18905;42.668;23.364;2024-01-07T10:15:12;93269.91;;;12.80;57.10
28626;BME280;18905;42.668;23.364;2024-01-07T10:17:41;93273.22;;;12.81;57.81
28626;BME280;18905;42.668;23.364;2024-01-07T10:20:07;93252.41;;;12.70;56.60
28626;BME280;18905;42.668;23.364;2024-01-07T10:22:39;93239.50;;;12.48;57.42
28626;BME280;18905;42.668;23.364;2024-01-07T10:25:05;93246.88;;;11.81;59.40
28626;BME280;18905;42.668;23.364;2024-01-07T10:27:37;93234.63;;;11.40;61.05
28626;BME280;18905;42.668;23.364;2024-01-07T10:30:03;93230.84;;;11.53;62.31
28626;BME280;18905;42.668;23.364;2024-01-07T10:32:29;93215.25;;;11.27;61.68
28626;BME280;18905;42.668;23.364;2024-01-07T10:35:03;93218.84;;;11.80;60.90
28626;BME280;18905;42.668;23.364;2024-01-07T10:37:30;93222.66;;;12.08;60.31
28626;BME280;18905;42.668;23.364;2024-01-07T10:39:59;93214.88;;;11.86;62.33
28626;BME280;18905;42.668;23.364;2024-01-07T10:42:30;93217.47;;;12.54;67.52
28626;BME280;18905;42.668;23.364;2024-01-07T10:44:56;93214.03;;;12.72;58.70
28626;BME280;18905;42.668;23.364;2024-01-07T10:47:23;93208.63;;;12.55;58.83
28626;BME280;18905;42.668;23.364;2024-01-07T10:49:51;93201.66;;;12.85;59.53
28626;BME280;18905;42.668;23.364;2024-01-07T10:52:16;93211.50;;;13.02;58.78
28626;BME280;18905;42.668;23.364;2024-01-07T10:54:43;93203.25;;;12.93;57.35
28626;BME280;18905;42.668;23.364;2024-01-07T10:57:19;93222.44;;;13.18;57.67
28626;BME280;18905;42.668;23.364;2024-01-07T10:59:47;93227.91;;;13.13;56.35
28626;BME280;18905;42.668;23.364;2024-01-07T11:02:13;93222.50;;;13.25;57.18
28626;BME280;18905;42.668;23.364;2024-01-07T11:05:08;93211.03;;;13.23;56.91
28626;BME280;18905;42.668;23.364;2024-01-07T11:07:46;93209.25;;;13.01;62.72
28626;BME280;18905;42.668;23.364;2024-01-07T11:10:18;93214.69;;;13.18;56.54
28626;BME280;18905;42.668;23.364;2024-01-07T11:12:56;93208.91;;;12.76;58.24
28626;BME280;18905;42.668;23.364;2024-01-07T11:18:20;93214.34;;;13.23;54.70
28626;BME280;18905;42.668;23.364;2024-01-07T11:20:47;93215.88;;;12.72;55.98
28626;BME280;18905;42.668;23.364;2024-01-07T11:23:42;93222.38;;;12.36;56.49
28626;BME280;18905;42.668;23.364;2024-01-07T11:26:08;93223.09;;;11.91;58.53
28626;BME280;18905;42.668;23.364;2024-01-07T11:31:18;93208.66;;;11.48;60.03
28626;BME280;18905;42.668;23.364;2024-01-07T11:33:45;93204.66;;;11.51;60.72
28626;BME280;18905;42.668;23.364;2024-01-07T11:36:12;93200.09;;;11.44;60.88
28626;BME280;18905;42.668;23.364;2024-01-07T11:38:43;93202.34;;;11.46;60.98
28626;BME280;18905;42.668;23.364;2024-01-07T11:41:12;93204.31;;;11.52;60.12
28626;BME280;18905;42.668;23.364;2024-01-07T11:43:51;93201.06;;;11.56;58.60
28626;BME280;18905;42.668;23.364;2024-01-07T11:46:17;93203.84;;;11.47;60.85
28626;BME280;18905;42.668;23.364;2024-01-07T11:48:45;93210.34;;;11.41;60.20
28626;BME280;18905;42.668;23.364;2024-01-07T11:51:11;93216.47;;;11.52;60.15
28626;BME280;18905;42.668;23.364;2024-01-07T11:53:37;93212.09;;;11.56;59.73
28626;BME280;18905;42.668;23.364;2024-01-07T11:56:02;93211.78;;;11.77;58.90
28626;BME280;18905;42.668;23.364;2024-01-07T11:58:28;93215.22;;;11.65;59.46
28626;BME280;18905;42.668;23.364;2024-01-07T12:00:53;93220.88;;;11.51;58.89
28626;BME280;18905;42.668;23.364;2024-01-07T12:03:18;93206.81;;;11.49;59.10
28626;BME280;18905;42.668;23.364;2024-01-07T12:05:44;93201.53;;;11.80;59.82
28626;BME280;18905;42.668;23.364;2024-01-07T12:08:10;93211.72;;;11.73;56.82
28626;BME280;18905;42.668;23.364;2024-01-07T12:10:37;93211.41;;;11.78;56.85
28626;BME280;18905;42.668;23.364;2024-01-07T12:13:03;93209.00;;;11.66;57.44
28626;BME280;18905;42.668;23.364;2024-01-07T12:15:29;93206.00;;;11.64;57.56
28626;BME280;18905;42.668;23.364;2024-01-07T12:17:56;93204.13;;;11.23;58.88
28626;BME280;18905;42.668;23.364;2024-01-07T12:20:22;93210.19;;;10.96;59.15
28626;BME280;18905;42.668;23.364;2024-01-07T12:22:47;93210.50;;;11.10;58.78
28626;BME280;18905;42.668;23.364;2024-01-07T12:25:13;93213.91;;;11.33;59.81
28626;BME280;18905;42.668;23.364;2024-01-07T12:27:40;93219.94;;;11.60;59.73
28626;BME280;18905;42.668;23.364;2024-01-07T12:30:06;93217.56;;;11.70;59.86
28626;BME280;18905;42.668;23.364;2024-01-07T12:32:32;93219.13;;;11.75;59.83
28626;BME280;18905;42.668;23.364;2024-01-07T12:34:58;93223.84;;;11.53;59.74
28626;BME280;18905;42.668;23.364;2024-01-07T12:37:26;93215.50;;;11.41;60.50
28626;BME280;18905;42.668;23.364;2024-01-07T12:39:52;93214.28;;;11.54;59.93
28626;BME280;18905;42.668;23.364;2024-01-07T12:42:18;93219.53;;;11.58;59.93
28626;BME280;18905;42.668;23.364;2024-01-07T12:44:44;93218.50;;;11.43;59.80
28626;BME280;18905;42.668;23.364;2024-01-07T12:47:09;93212.66;;;11.27;61.28
28626;BME280;18905;42.668;23.364;2024-01-07T12:49:34;93209.47;;;11.14;61.67
28626;BME280;18905;42.668;23.364;2024-01-07T12:52:00;93209.56;;;11.37;60.57
28626;BME280;18905;42.668;23.364;2024-01-07T12:54:25;93213.97;;;11.56;60.19
28626;BME280;18905;42.668;23.364;2024-01-07T12:56:50;93214.22;;;11.70;60.27
28626;BME280;18905;42.668;23.364;2024-01-07T12:59:17;93214.00;;;11.78;59.12